Tiempo atmosférico en la estación meteorológica de San Roque, Cádiz (1 m.)



Fecha
DESCASC
Temp. máxima en grados centígrados (hora)
DESCASC
Temp. mínima en grados centígrados (hora)
DESCASC
Temp. media en grados centígrados
DESCASC
Racha de viento máxima en m/sg (hora)
DESCASC
Velocidad máxima media en intervalos de 10 minutos(hora)
DESCASC
Precipitaciones diarias en mm
DESCASC
Precipitaciones de 00:00 a 06:00 en mm
DESCASC
Precipitaciones de 06:00 a 12:00 en mm
DESCASC
Precipitaciones de 12:00 a 18:00 en mm
DESCASC
Precipitaciones de 18:00 a 24:00 en mm
DESCASC
18-04-2019 19.7 (18:00) 11.4 (23:50) 15.6 11.67 (18:10) 8.33 (18:20) 9.6 5 4.2 0.4 0
17-04-2019 17.5 (16:10) 14.3 (23:59) 15.9 11.39 (09:20) 8.89 (08:30) 0 0 0 0 0
16-04-2019 20.6 (17:20) 11.9 (00:00) 16.3 8.06 (00:20) 5.56 (00:20) 0 0 0 0 0
15-04-2019 26.8 (15:50) 11.3 (00:00) 19 13.89 (20:30) 9.44 (17:30) 0 0 0 0 0
14-04-2019 21.7 (16:00) 11.9 (00:00) 16.8 6.39 (00:10) 3.61 (01:00) 0 0 0 0 0
13-04-2019 25 (17:10) 11.1 (00:00) 18.1 11.39 (17:10) 7.5 (14:40) 0 0 0 0 0
12-04-2019 23.9 (18:30) 10.9 (00:00) 17.4 8.89 (19:30) 6.11 (19:10) 0 0 0 0 0
11-04-2019 22.6 (16:10) 9.8 (00:00) 16.2 12.5 (15:20) 6.67 (12:20) 0 0 0 0 0
10-04-2019 20.3 (15:30) 10.1 (00:00) 15.2 12.22 (15:10) 7.5 (13:30) 0 0 0 0 0
09-04-2019 20.2 (16:10) 9.1 (00:00) 14.7 13.33 (16:50) 8.89 (16:50) 0 0 0 0 0
08-04-2019 21.4 (17:30) 13.1 (00:00) 17.3 11.94 (16:50) 7.78 (17:10) 1.2 0.4 0.4 0 0.4
07-04-2019 18 (18:00) 10.7 (00:00) 14.3 13.89 (17:50) 8.89 (18:10) 0.8 0.6 0.2 0 0
06-04-2019 16.5 (16:40) 8.7 (00:00) 12.6 14.44 (13:50) 9.72 (16:20) 6.2 1.2 0.6 4.4 0
05-04-2019 16.1 (17:10) 8.4 (00:00) 12.3 16.11 (15:50) 10.28 (16:00) 18.6 0.6 13.2 4.8 0
04-04-2019 20.8 (14:30) 8.8 (00:00) 14.8 13.33 (14:00) 8.61 (13:30) 0 0 0 0 0
03-04-2019 25.3 (16:40) 9.7 (00:00) 17.5 11.11 (19:10) 6.67 (17:00) 0 0 0 0 0
02-04-2019 18.6 (13:40) 8.8 (00:00) 13.7 6.39 (09:10) 4.17 (09:20) 0 0 0 0 0
01-04-2019 20.5 (19:20) 12.5 (00:00) 16.5 8.33 (11:10) 5.56 (11:20) 2.2 0 0.6 1.6 0
31-03-2019 18 (16:10) 13.6 (00:00) 15.8 10.56 (01:40) 6.11 (18:20) 1.2 1.2 0 0 0
30-03-2019 15.8 (11:50) 14.6 (00:00) 15.2 12.5 (00:10) 8.61 (04:10) 3.6 0 0 0 3.6
29-03-2019 17.9 (14:40) 14.7 (00:00) 16.3 14.17 (00:50) 11.67 (01:20) 0 0 0 0 0
28-03-2019 17.2 (12:20) 14.4 (00:00) 15.8 15 (14:10) 11.94 (15:20) 0 0 0 0 0
27-03-2019 16.7 (14:00) 14.5 (00:00) 15.6 19.44 (04:30) 15.28 (05:00) 0 0 0 0 0
26-03-2019 20.3 (14:10) 15.6 (00:00) 17.9 17.22 (23:59) 13.33 (23:59) 0 0 0 0 0
25-03-2019 20.4 (13:20) 15.2 (00:00) 17.8 7.78 (04:40) 5 (14:50) 0 0 0 0 0
24-03-2019 19.2 (16:30) 15.2 (00:00) 17.2 13.61 (00:30) 11.11 (00:30) 0 0 0 0 0
23-03-2019 18 (15:40) 14.6 (00:00) 16.3 14.44 (22:10) 10.56 (23:30) 0 0 0 0 0
22-03-2019 17.4 (15:50) 14.4 (00:00) 15.9 14.72 (10:00) 10.56 (03:00) 0 0 0 0 0
21-03-2019 16 (10:40) 13.1 (00:00) 14.6 16.67 (06:20) 12.22 (01:20) 0.2 0 0.2 0 0

Gráficas

Temp. máximas Temp. mínimas Temp. medias Precipitaciones Rachas de viento máximas Velocidades máximas media en intervalos de 10 minutos

Datos horarios

Fecha y hora oficial Temperatura (ºC) Velocidad del viento (km/h) Dirección del viento Racha (km/h) Dirección de racha Precipitación (mm) Presión (hPa) Tendencia (hPa) Humedad (%)
2019-04-19 23:00:00 13 5 Noroeste 9 Noroeste 0 -- -- 89
2019-04-19 22:00:00 13.5 5 Noroeste 8 Noroeste 0 -- -- 87
2019-04-19 21:00:00 15.5 0 Calma 10 Oeste 0 -- -- 79
2019-04-19 20:00:00 17.3 9 Sudoeste 21 Sur 0 -- -- 74
2019-04-19 19:00:00 18.1 13 Sur 20 Sur 0 -- -- 76
2019-04-19 18:00:00 16.8 4 Norte 13 Sur 0 -- -- 76
2019-04-19 17:00:00 17.1 10 Sudeste 15 Sudeste 0.2 -- -- 89
2019-04-19 16:00:00 14.2 4 Oeste 20 Oeste 3.4 -- -- 94
2019-04-19 15:00:00 14.7 13 Oeste 20 Noroeste 4.4 -- -- 87
2019-04-19 14:00:00 17.7 19 Sur 34 Sur 0 -- -- 69
2019-04-19 13:00:00 17.8 15 Sur 22 Sur 0 -- -- 74
2019-04-19 12:00:00 18.6 11 Noroeste 23 Oeste 0 -- -- 60
2019-04-19 11:00:00 16.9 16 Oeste 24 Oeste 0 -- -- 73
2019-04-19 10:00:00 14.6 6 Norte 11 Norte 0 -- -- 84
2019-04-19 09:00:00 11.8 2 Noroeste 5 Norte 0 -- -- 95
2019-04-19 08:00:00 10.1 3 Norte 9 Noroeste 0 -- -- 93
2019-04-19 07:00:00 10.5 6 Oeste 10 Oeste 0 -- -- 91
2019-04-19 06:00:00 11.1 5 Oeste 13 Noroeste 0 -- -- 92
2019-04-19 05:00:00 11.2 5 Noroeste 13 Noroeste 0 -- -- 92
2019-04-19 04:00:00 11.3 8 Noroeste 14 Noroeste 0 -- -- 91
2019-04-19 03:00:00 11.4 9 Noroeste 14 Noroeste 0 -- -- 90
2019-04-19 02:00:00 11.1 6 Noroeste 9 Noroeste 0 -- -- 90
2019-04-19 01:00:00 10.9 4 Sudoeste 5 Sur 0 -- -- 85
2019-04-19 00:00:00 11.8 2 Noroeste 11 Oeste 0 -- -- 85
2019-04-18 23:00:00 13.2 6 Oeste 19 Oeste 0 -- -- 76
2019-04-18 22:00:00 14.6 12 Noroeste 22 Oeste 0 -- -- 73
2019-04-18 21:00:00 15.9 16 Oeste 31 Oeste 0 -- -- 68
2019-04-18 20:00:00 17.8 21 Oeste 39 Oeste 0 -- -- 62
2019-04-18 19:00:00 18.5 24 Oeste 42 Sudoeste 0 -- -- 57
2019-04-18 18:00:00 19.7 25 Sudoeste 35 Sudoeste 0 -- -- 56
2019-04-18 17:00:00 19.5 12 Oeste 32 Sur 0 -- -- 62
2019-04-18 16:00:00 18.4 13 Sur 27 Sudeste 0 -- -- 73
2019-04-18 15:00:00 18.1 16 Oeste 27 Sur 0.4 -- -- 70
2019-04-18 14:00:00 16.7 21 Sur 30 Sur 0 -- -- 85
2019-04-18 13:00:00 15.9 13 Sur 24 Sur 0 -- -- 88
2019-04-18 12:00:00 14.5 6 Oeste 13 Oeste 0 -- -- 97
2019-04-18 11:00:00 12.7 5 Oeste 15 Oeste 1.8 -- -- 98
2019-04-18 10:00:00 12.6 14 Oeste 27 Oeste 2.2 -- -- 97
2019-04-18 09:00:00 13.3 5 Noroeste 12 Noroeste 0 -- -- 99
2019-04-18 08:00:00 12.7 4 Noroeste 8 Noroeste 0 -- -- 98
2019-04-18 07:00:00 13 2 Oeste 5 Oeste 0.2 -- -- 97
2019-04-18 06:00:00 13.5 3 Sudoeste 9 Oeste 1 -- -- 97
2019-04-18 05:00:00 13.8 0 Calma 8 Este 1.4 -- -- 96
2019-04-18 04:00:00 13.8 3 Noroeste 7 Norte 2 -- -- 95
2019-04-18 03:00:00 14.3 3 Oeste 13 Oeste 0.6 -- -- 91
2019-04-18 02:00:00 14.3 3 Oeste 8 Noroeste 0 -- -- 90
2019-04-18 01:00:00 14.4 6 Noroeste 10 Noroeste 0 -- -- 90
2019-04-18 00:00:00 14.3 5 Oeste 8 Noroeste 0 -- -- 90
2019-04-17 23:00:00 15.1 3 Sudoeste 6 Norte 0 -- -- 88
2019-04-17 22:00:00 15.3 6 Norte 21 Oeste 0 -- -- 84
2019-04-17 21:00:00 16.1 17 Oeste 31 Oeste 0 -- -- 85
2019-04-17 20:00:00 16.6 5 Sudoeste 11 Sur 0 -- -- 87
2019-04-17 19:00:00 16.9 6 Sur 9 Sur 0 -- -- 87
2019-04-17 18:00:00 16.8 3 Este 14 Nordeste 0 -- -- 89
2019-04-17 17:00:00 17.1 5 Nordeste 17 Este 0 -- -- 87
2019-04-17 16:00:00 17.4 10 Este 19 Este 0 -- -- 87
2019-04-17 15:00:00 16.5 15 Este 35 Este 0 -- -- 89
2019-04-17 14:00:00 16.7 18 Este 37 Este 0 -- -- 88
2019-04-17 13:00:00 16.5 22 Este 41 Este 0 -- -- 88
2019-04-17 12:00:00 16.8 18 Este 35 Este 0 -- -- 88
2019-04-17 11:00:00 16.7 20 Este 38 Este 0 -- -- 90
2019-04-17 10:00:00 16.5 16 Este 41 Este 0 -- -- 90
2019-04-17 09:00:00 16.3 29 Este 40 Este 0 -- -- 90
2019-04-17 08:00:00 16.2 19 Este 30 Este 0 -- -- 90
2019-04-17 07:00:00 16.2 14 Este 27 Este 0 -- -- 91
2019-04-17 06:00:00 16 14 Este 27 Nordeste 0 -- -- 92
2019-04-17 05:00:00 16 13 Este 26 Este 0 -- -- 91
2019-04-17 04:00:00 16 11 Este 27 Nordeste 0 -- -- 92
2019-04-17 03:00:00 16.2 10 Este 26 Este 0 -- -- 92
2019-04-17 02:00:00 15.9 11 Nordeste 21 Nordeste 0 -- -- 90
2019-04-17 01:00:00 16 10 Nordeste 20 Este 0 -- -- 94
2019-04-17 00:00:00 16.3 9 Este 23 Este 0 -- -- 93
2019-04-16 23:00:00 16.6 16 Este 21 Este 0 -- -- 93
2019-04-16 22:00:00 17.1 7 Este 13 Este 0 -- -- 88
2019-04-16 21:00:00 18.2 4 Este 10 Nordeste 0 -- -- 82
2019-04-16 20:00:00 19.8 4 Este 11 Este 0 -- -- 80
2019-04-16 19:00:00 19.9 6 Este 11 Nordeste 0 -- -- 79
2019-04-16 18:00:00 19.9 9 Este 12 Este 0 -- -- 80
2019-04-16 17:00:00 20.1 8 Este 11 Sudeste 0 -- -- 79
2019-04-16 16:00:00 19.7 10 Sur 15 Sur 0 -- -- 79
2019-04-16 15:00:00 19.4 10 Sur 15 Sur 0 -- -- 73
2019-04-16 14:00:00 19.6 11 Sur 19 Sur 0 -- -- 73
2019-04-16 13:00:00 18.6 12 Sur 15 Sur 0 -- -- 79
2019-04-16 12:00:00 18.6 11 Sudeste 19 Sudeste 0 -- -- 76
2019-04-16 11:00:00 18.8 9 Oeste 16 Norte 0 -- -- 73
2019-04-16 10:00:00 16 9 Noroeste 14 Norte 0 -- -- 82
2019-04-16 09:00:00 13.6 6 Noroeste 15 Noroeste 0 -- -- 91
2019-04-16 08:00:00 12.1 10 Noroeste 18 Noroeste 0 -- -- 91
2019-04-16 07:00:00 13.3 13 Oeste 20 Oeste 0 -- -- 91
2019-04-16 06:00:00 12.9 7 Oeste 12 Oeste 0 -- -- 91
2019-04-16 05:00:00 13.6 6 Oeste 20 Oeste 0 -- -- 86
2019-04-16 04:00:00 13.9 17 Oeste 23 Oeste 0 -- -- 89
2019-04-16 03:00:00 12 6 Oeste 13 Sudoeste 0 -- -- 89
2019-04-16 02:00:00 12.9 9 Sudoeste 13 Sudoeste 0 -- -- 84
2019-04-16 01:00:00 14.9 10 Sudoeste 29 Oeste 0 -- -- 80
2019-04-16 00:00:00 15.9 9 Noroeste 22 Oeste 0 -- -- 77
2019-04-15 23:00:00 16.1 15 Oeste 31 Oeste 0 -- -- 77
2019-04-15 22:00:00 17.9 4 Oeste 33 Oeste 0 -- -- 73
2019-04-15 21:00:00 19.1 17 Oeste 50 Oeste 0 -- -- 68
2019-04-15 20:00:00 21.2 25 Oeste 46 Oeste 0 -- -- 56
2019-04-15 19:00:00 23.1 25 Oeste 46 Oeste 0 -- -- 40
2019-04-15 18:00:00 24.7 26 Oeste 48 Sudoeste 0 -- -- 47
2019-04-15 17:00:00 26.2 24 Sudoeste 40 Sudoeste 0 -- -- 36
2019-04-15 16:00:00 26.7 30 Sudoeste 43 Sudoeste 0 -- -- 45
2019-04-15 15:00:00 20.7 11 Sudeste 18 Sur 0 -- -- 72
2019-04-15 14:00:00 20.1 6 Sudeste 14 Sur 0 -- -- 75
2019-04-15 13:00:00 20.1 8 Sudeste 16 Sur 0 -- -- 69
2019-04-15 12:00:00 22.3 8 Noroeste 17 Sur 0 -- -- 57
2019-04-15 11:00:00 18.3 8 Noroeste 14 Noroeste -- -- -- 68
2019-04-15 10:00:00 15.4 9 Noroeste 18 Noroeste 0 -- -- 79
2019-04-15 09:00:00 12.5 12 Noroeste 17 Norte 0 -- -- 90
2019-04-15 08:00:00 11.4 12 Noroeste 17 Noroeste 0 -- -- 91
2019-04-15 07:00:00 11.7 12 Noroeste 15 Noroeste 0 -- -- 90
2019-04-15 06:00:00 12.1 10 Noroeste 15 Noroeste 0 -- -- 89
2019-04-15 05:00:00 12.8 9 Noroeste 15 Norte 0 -- -- 86
2019-04-15 04:00:00 13.2 10 Norte 16 Noroeste 0 -- -- 84
2019-04-15 03:00:00 14.2 9 Norte 14 Norte 0 -- -- 81
2019-04-15 02:00:00 14.9 5 Norte 14 Norte 0 -- -- 78
2019-04-15 01:00:00 15.5 9 Noroeste 11 Noroeste 0 -- -- 77
2019-04-15 00:00:00 15.9 4 Noroeste 9 Noroeste 0 -- -- 75
2019-04-14 23:00:00 16.7 5 Noroeste 7 Noroeste 0 -- -- 78
2019-04-14 22:00:00 17 4 Oeste 5 Oeste 0 -- -- 73
2019-04-14 21:00:00 18.5 2 Sur 4 Sur 0 -- -- 73
2019-04-14 20:00:00 19.4 2 Sudeste 6 Sur 0 -- -- 72
2019-04-14 19:00:00 20.5 4 Sudeste 8 Sudeste 0 -- -- 67
2019-04-14 18:00:00 21 6 Sudeste 8 Sudeste 0 -- -- 64
2019-04-14 17:00:00 21 5 Sudeste 12 Este 0 -- -- 67
2019-04-14 16:00:00 21.7 6 Este 9 Este 0 -- -- 71
2019-04-14 15:00:00 20.9 6 Este 8 Este 0 -- -- 74
2019-04-14 14:00:00 20.7 5 Sudeste 11 Sur 0 -- -- 68
2019-04-14 13:00:00 19.1 9 Sur 15 Sur 0 -- -- 72
2019-04-14 12:00:00 18.6 10 Sur 13 Sur 0 -- -- 75
2019-04-14 11:00:00 18 5 Sur 16 Noroeste 0 -- -- 70
2019-04-14 10:00:00 16.8 10 Noroeste 19 Noroeste 0 -- -- 64
2019-04-14 09:00:00 13.4 13 Noroeste 18 Noroeste 0 -- -- 73
2019-04-14 08:00:00 12.6 12 Noroeste 19 Noroeste 0 -- -- 75
2019-04-14 07:00:00 12.2 8 Noroeste 15 Noroeste 0 -- -- 74
2019-04-14 06:00:00 11.9 7 Oeste 13 Noroeste 0 -- -- 73
2019-04-14 05:00:00 12.7 6 Oeste 9 Noroeste 0 -- -- 70
2019-04-14 04:00:00 13.9 6 Noroeste 14 Noroeste 0 -- -- 68
2019-04-14 03:00:00 15.2 5 Noroeste 19 Noroeste 0 -- -- 62
2019-04-14 02:00:00 16.4 8 Oeste 22 Oeste 0 -- -- 55
2019-04-14 01:00:00 17.1 13 Noroeste 23 Noroeste 0 -- -- 55
2019-04-14 00:00:00 17.3 13 Noroeste 24 Noroeste 0 -- -- 55
2019-04-13 23:00:00 17.5 19 Oeste 31 Noroeste 0 -- -- 57
2019-04-13 22:00:00 18.2 18 Oeste 28 Oeste 0 -- -- 55
2019-04-13 21:00:00 19.9 17 Oeste 29 Oeste 0 -- -- 51
2019-04-13 20:00:00 22.3 19 Oeste 36 Oeste 0 -- -- 48
2019-04-13 19:00:00 23.9 22 Oeste 36 Oeste 0 -- -- 47
2019-04-13 18:00:00 24.9 23 Oeste 41 Sudoeste 0 -- -- 46
2019-04-13 17:00:00 23.9 12 Oeste 38 Sudoeste 0 -- -- 52
2019-04-13 16:00:00 20.2 23 Sur 37 Sur 0 -- -- 71
2019-04-13 15:00:00 20.1 19 Sur 37 Sur 0 -- -- 68
2019-04-13 14:00:00 19.8 22 Sudeste 28 Sudeste 0 -- -- 72
2019-04-13 13:00:00 19.4 14 Sur 21 Sur 0 -- -- 70
2019-04-13 12:00:00 19 6 Sudeste 14 Sur 0 -- -- 66
2019-04-13 11:00:00 18.8 6 Noroeste 13 Noroeste 0 -- -- 56
2019-04-13 10:00:00 15 8 Noroeste 15 Noroeste 0 -- -- 65
2019-04-13 09:00:00 12.3 12 Noroeste 21 Noroeste 0 -- -- 71
2019-04-13 08:00:00 11.3 14 Noroeste 24 Noroeste 0 -- -- 72
2019-04-13 07:00:00 11.3 14 Noroeste 22 Noroeste 0 -- -- 72
2019-04-13 06:00:00 12.1 12 Noroeste 23 Norte 0 -- -- 70
2019-04-13 05:00:00 12.4 10 Noroeste 17 Norte 0 -- -- 69
2019-04-13 04:00:00 13.6 8 Noroeste 18 Noroeste 0 -- -- 63
2019-04-13 03:00:00 13.6 9 Noroeste 17 Oeste 0 -- -- 64
2019-04-13 02:00:00 15 13 Oeste 21 Oeste 0 -- -- 55
2019-04-13 01:00:00 15.1 12 Oeste 21 Oeste 0 -- -- 55
2019-04-13 00:00:00 15 12 Oeste 21 Oeste 0 -- -- 55
2019-04-12 23:00:00 16.6 7 Oeste 23 Noroeste 0 -- -- 50
2019-04-12 22:00:00 17.5 12 Noroeste 28 Oeste 0 -- -- 49
2019-04-12 21:00:00 18.8 18 Oeste 28 Oeste 0 -- -- 48
2019-04-12 20:00:00 21.6 18 Oeste 32 Oeste 0 -- -- 49
2019-04-12 19:00:00 23.2 20 Oeste 32 Oeste 0 -- -- 44
2019-04-12 18:00:00 22.2 10 Noroeste 21 Sudeste 0 -- -- 42
2019-04-12 17:00:00 20 13 Sudeste 18 Sudeste 0 -- -- 64
2019-04-12 16:00:00 19.7 13 Sudeste 21 Sur 0 -- -- 75
2019-04-12 15:00:00 19 15 Sur 23 Sur 0 -- -- 75
2019-04-12 14:00:00 19.6 14 Sur 24 Sur 0 -- -- 71
2019-04-12 13:00:00 18.9 15 Sur 22 Sur 0 -- -- 72
2019-04-12 12:00:00 19.3 12 Sur 15 Sudeste 0 -- -- 69
2019-04-12 11:00:00 18.1 9 Noroeste 17 Noroeste 0 -- -- 59
2019-04-12 10:00:00 14.4 8 Norte 19 Norte 0 -- -- 74
2019-04-12 09:00:00 11.5 12 Noroeste 22 Noroeste 0 -- -- 83
2019-04-12 08:00:00 11 12 Norte 22 Norte 0 -- -- 84
2019-04-12 07:00:00 11.3 12 Noroeste 19 Noroeste 0 -- -- 84
2019-04-12 06:00:00 11.7 8 Noroeste 21 Oeste 0 -- -- 84
2019-04-12 05:00:00 12.1 13 Oeste 21 Oeste 0 -- -- 83
2019-04-12 04:00:00 12.2 5 Noroeste 12 Noroeste 0 -- -- 83
2019-04-12 03:00:00 13.2 9 Noroeste 19 Oeste 0 -- -- 80
2019-04-12 02:00:00 14.1 15 Oeste 24 Oeste 0 -- -- 78
2019-04-12 01:00:00 14.2 16 Oeste 26 Oeste 0 -- -- 80
2019-04-12 00:00:00 14.6 18 Oeste 27 Noroeste 0 -- -- 78
2019-04-11 23:00:00 15.2 16 Oeste 33 Noroeste 0 -- -- 72
2019-04-11 22:00:00 15.7 20 Oeste 32 Oeste 0 -- -- 68
2019-04-11 21:00:00 16.9 18 Oeste 27 Oeste 0 -- -- 67
2019-04-11 20:00:00 19.5 18 Sudoeste 30 Oeste 0 -- -- 59
2019-04-11 19:00:00 22.1 15 Noroeste 30 Noroeste 0 -- -- 38
2019-04-11 18:00:00 22.2 15 Noroeste 32 Noroeste 0 -- -- 39
2019-04-11 17:00:00 22.2 17 Noroeste 36 Oeste 0 -- -- 42
2019-04-11 16:00:00 22.3 20 Oeste 45 Oeste 0 -- -- 44
2019-04-11 15:00:00 21.9 17 Noroeste 38 Oeste 0 -- -- 44
2019-04-11 14:00:00 21.4 22 Oeste 35 Oeste 0 -- -- 46
2019-04-11 13:00:00 20 21 Oeste 35 Noroeste 0 -- -- 49
2019-04-11 12:00:00 19.1 22 Oeste 33 Oeste 0 -- -- 50
2019-04-11 11:00:00 17.2 12 Noroeste 21 Noroeste 0 -- -- 61
2019-04-11 10:00:00 14.3 10 Noroeste 17 Noroeste 0 -- -- 73
2019-04-11 09:00:00 11 8 Noroeste 12 Norte 0 -- -- 86
2019-04-11 08:00:00 10.1 6 Noroeste 11 Oeste 0 -- -- 86
2019-04-11 07:00:00 10.4 5 Noroeste 10 Oeste 0 -- -- 85
2019-04-11 06:00:00 11.5 6 Noroeste 15 Noroeste 0 -- -- 81
2019-04-11 05:00:00 11.3 10 Noroeste 21 Oeste 0 -- -- 83
2019-04-11 04:00:00 10.5 7 Oeste 14 Oeste 0 -- -- 90
2019-04-11 03:00:00 10.6 12 Oeste 15 Oeste 0 -- -- 90
2019-04-11 02:00:00 12.3 3 Noroeste 12 Oeste 0 -- -- 87
2019-04-11 01:00:00 13.4 11 Oeste 15 Oeste 0 -- -- 89
2019-04-11 00:00:00 13.8 5 Noroeste 9 Oeste 0 -- -- 86
2019-04-10 23:00:00 14.4 3 Noroeste 9 Norte 0 -- -- 81
2019-04-10 22:00:00 14.9 4 Oeste 29 Oeste 0 -- -- 79
2019-04-10 21:00:00 15.7 18 Oeste 32 Oeste 0 -- -- 75
2019-04-10 20:00:00 18.3 18 Oeste 37 Oeste 0 -- -- 62
2019-04-10 19:00:00 19.6 23 Oeste 38 Oeste 0 -- -- 53
2019-04-10 18:00:00 20.1 23 Noroeste 39 Oeste 0 -- -- 48
2019-04-10 17:00:00 19.8 19 Noroeste 36 Noroeste 0 -- -- 49
2019-04-10 16:00:00 20 17 Noroeste 44 Oeste 0 -- -- 48
2019-04-10 15:00:00 19.9 26 Oeste 42 Oeste 0 -- -- 47
2019-04-10 14:00:00 18.8 24 Oeste 41 Oeste 0 -- -- 52
2019-04-10 13:00:00 17.8 22 Noroeste 37 Oeste 0 -- -- 53
2019-04-10 12:00:00 16.6 19 Noroeste 40 Noroeste 0 -- -- 57
2019-04-10 11:00:00 15.2 17 Noroeste 30 Noroeste 0 -- -- 66
2019-04-10 10:00:00 13.5 12 Noroeste 23 Oeste 0 -- -- 74
2019-04-10 09:00:00 10.9 4 Sudoeste 16 Oeste 0 -- -- 83
2019-04-10 08:00:00 10.1 10 Oeste 19 Oeste 0 -- -- 86
2019-04-10 07:00:00 10.8 12 Oeste 19 Oeste 0 -- -- 83
2019-04-10 06:00:00 11.6 7 Noroeste 23 Oeste 0 -- -- 82
2019-04-10 05:00:00 12.3 10 Noroeste 26 Noroeste 0 -- -- 81
2019-04-10 04:00:00 12.4 11 Oeste 23 Noroeste 0 -- -- 82
2019-04-10 03:00:00 11.4 9 Oeste 19 Oeste 0 -- -- 90
2019-04-10 02:00:00 11.1 14 Oeste 18 Oeste 0 -- -- 93
2019-04-10 01:00:00 10.3 11 Oeste 12 Oeste 0 -- -- 87
2019-04-10 00:00:00 12.3 3 Oeste 13 Oeste 0 -- -- 85
2019-04-09 23:00:00 13.3 3 Oeste 14 Oeste 0 -- -- 80
2019-04-09 22:00:00 14 8 Oeste 32 Oeste 0 -- -- 75
2019-04-09 21:00:00 15.3 21 Oeste 33 Oeste 0 -- -- 68
2019-04-09 20:00:00 18.1 21 Oeste 34 Oeste 0 -- -- 57
2019-04-09 19:00:00 19 24 Oeste 42 Oeste 0 -- -- 53
2019-04-09 18:00:00 19.6 25 Oeste 47 Oeste 0 -- -- 51
2019-04-09 17:00:00 20.1 28 Oeste 48 Oeste 0 -- -- 49
2019-04-09 16:00:00 20.1 25 Oeste 45 Oeste 0 -- -- 52
2019-04-09 15:00:00 18.1 21 Oeste 45 Oeste 0 -- -- 61
2019-04-09 14:00:00 19.1 24 Oeste 41 Sudoeste 0 -- -- 62
2019-04-09 13:00:00 17.4 20 Oeste 34 Sudoeste 0 -- -- 64
2019-04-09 12:00:00 17.1 21 Oeste 33 Sudoeste 0 -- -- 67
2019-04-09 11:00:00 15.8 15 Oeste 27 Oeste 0 -- -- 75
2019-04-09 10:00:00 14 10 Noroeste 17 Oeste 0 -- -- 80
2019-04-09 09:00:00 10.9 9 Oeste 14 Oeste 0 -- -- 95
2019-04-09 08:00:00 9.3 12 Sudoeste 16 Oeste 0 -- -- 94
2019-04-09 07:00:00 9.5 12 Oeste 17 Oeste 0 -- -- 94
2019-04-09 06:00:00 9.7 9 Oeste 15 Oeste 0 -- -- 92
2019-04-09 05:00:00 11 8 Oeste 16 Oeste 0 -- -- 92
2019-04-09 04:00:00 11.7 9 Oeste 14 Oeste 0 -- -- 93
2019-04-09 03:00:00 12.3 10 Oeste 18 Oeste 0 -- -- 93
2019-04-09 02:00:00 12.8 9 Oeste 27 Oeste 0 -- -- 91
2019-04-09 01:00:00 13.2 14 Oeste 25 Oeste 0 -- -- 90
2019-04-09 00:00:00 13.2 6 Noroeste 18 Oeste 0 -- -- 90
2019-04-08 23:00:00 13.6 14 Oeste 34 Oeste 0 -- -- 92
2019-04-08 22:00:00 14.4 14 Oeste 21 Oeste 0 -- -- 92
2019-04-08 21:00:00 15 5 Noroeste 18 Sudoeste 0.2 -- -- 92
2019-04-08 20:00:00 15.7 10 Oeste 23 Oeste 0 -- -- 91
2019-04-08 19:00:00 16.6 20 Oeste 40 Oeste 0.2 -- -- 83
2019-04-08 18:00:00 20.6 19 Oeste 41 Oeste 0 -- -- 58
2019-04-08 17:00:00 20.7 26 Sudoeste 43 Oeste 0 -- -- 60
2019-04-08 16:00:00 19.8 25 Sudoeste 42 Sudoeste 0 -- -- 65
2019-04-08 15:00:00 19.5 24 Oeste 40 Sudoeste 0 -- -- 69
2019-04-08 14:00:00 18.9 22 Oeste 38 Oeste 0 -- -- 71
2019-04-08 13:00:00 18.3 25 Oeste 39 Sudoeste 0 -- -- 77
2019-04-08 12:00:00 17 22 Sudoeste 32 Sudoeste 0.2 -- -- 87
2019-04-08 11:00:00 15.7 4 Sudoeste 12 Sur 0 -- -- 91
2019-04-08 10:00:00 15.9 3 Sudoeste 10 Noroeste 0 -- -- 91
2019-04-08 09:00:00 13.9 5 Oeste 10 Oeste 0 -- -- 96
2019-04-08 08:00:00 14 0 Calma 5 Sudeste 0 -- -- 96
2019-04-08 07:00:00 14 0 Calma 8 Sur 0.2 -- -- 96
2019-04-08 06:00:00 13.4 4 Oeste 10 Sur 0 -- -- 96
2019-04-08 05:00:00 13.5 4 Sur 11 Oeste 0 -- -- 95
2019-04-08 04:00:00 13.6 3 Sudoeste 12 Oeste 0 -- -- 94
2019-04-08 03:00:00 14.5 8 Oeste 12 Oeste 0.2 -- -- 94
2019-04-08 02:00:00 14.4 4 Oeste 10 Oeste 0.2 -- -- 93
2019-04-08 01:00:00 13.9 9 Oeste 12 Oeste 0 -- -- 91
2019-04-08 00:00:00 14.9 6 Oeste 16 Oeste 0 -- -- 88
2019-04-07 23:00:00 15.5 9 Oeste 35 Oeste 0 -- -- 85
2019-04-07 22:00:00 16.4 17 Oeste 32 Oeste 0 -- -- 83
2019-04-07 21:00:00 16.3 19 Oeste 40 Sudoeste 0 -- -- 83
2019-04-07 20:00:00 16.7 23 Sudoeste 39 Oeste 0 -- -- 80
2019-04-07 19:00:00 17.5 24 Sudoeste 48 Sudoeste 0 -- -- 78
2019-04-07 18:00:00 18 26 Oeste 50 Oeste 0 -- -- 72
2019-04-07 17:00:00 16.8 19 Oeste 44 Oeste 0 -- -- 82
2019-04-07 16:00:00 17.1 22 Oeste 39 Sudoeste 0 -- -- 69
2019-04-07 15:00:00 17.4 25 Oeste 37 Oeste 0 -- -- 66
2019-04-07 14:00:00 16.3 17 Oeste 42 Oeste 0 -- -- 74
2019-04-07 13:00:00 16 28 Oeste 44 Sudoeste 0 -- -- 76
2019-04-07 12:00:00 15.3 23 Oeste 39 Oeste 0.2 -- -- 70
2019-04-07 11:00:00 15.2 21 Oeste 34 Oeste 0 -- -- 74
2019-04-07 10:00:00 13.7 13 Oeste 23 Oeste 0 -- -- 85
2019-04-07 09:00:00 12 10 Noroeste 17 Oeste 0 -- -- 91
2019-04-07 08:00:00 11.1 9 Oeste 17 Oeste 0 -- -- 93
2019-04-07 07:00:00 11.3 8 Oeste 18 Oeste 0 -- -- 92
2019-04-07 06:00:00 11.1 10 Oeste 19 Oeste 0 -- -- 93
2019-04-07 05:00:00 10.7 10 Oeste 17 Oeste 0 -- -- 93
2019-04-07 04:00:00 11.4 14 Oeste 38 Oeste 0.4 -- -- 90
2019-04-07 03:00:00 11.8 16 Oeste 28 Oeste 0.2 -- -- 87
2019-04-07 02:00:00 12.3 14 Oeste 30 Oeste 0 -- -- 80
2019-04-07 01:00:00 12.5 15 Oeste 31 Sudoeste 0 -- -- 81
2019-04-07 00:00:00 12.3 11 Sudoeste 31 Oeste 0 -- -- 80
2019-04-06 23:00:00 12.7 19 Oeste 41 Oeste 0 -- -- 78
2019-04-06 22:00:00 12.8 19 Oeste 37 Oeste 0 -- -- 78
2019-04-06 21:00:00 13 23 Oeste 45 Oeste 0 -- -- 76
2019-04-06 20:00:00 14.1 22 Oeste 50 Oeste 0 -- -- 75
2019-04-06 19:00:00 13.3 23 Oeste 46 Oeste 0 -- -- 86
2019-04-06 18:00:00 12.5 23 Oeste 47 Oeste 3 -- -- 88
2019-04-06 17:00:00 15.6 19 Oeste 50 Sudoeste 0 -- -- 71
2019-04-06 16:00:00 15.1 26 Oeste 50 Oeste 0 -- -- 71
2019-04-06 15:00:00 13.4 22 Oeste 45 Oeste 0.8 -- -- 86
2019-04-06 14:00:00 13.3 26 Oeste 52 Oeste 0.4 -- -- 82
2019-04-06 13:00:00 15.4 22 Oeste 37 Sudoeste 0.2 -- -- 73
2019-04-06 12:00:00 13.4 20 Oeste 32 Oeste 0 -- -- 80
2019-04-06 11:00:00 12 9 Oeste 19 Noroeste 0.4 -- -- 89
2019-04-06 10:00:00 10.9 4 Oeste 13 Noroeste 0 -- -- 92
2019-04-06 09:00:00 9.5 4 Norte 14 Sur 0.2 -- -- 92
2019-04-06 08:00:00 9.1 9 Oeste 24 Noroeste 0 -- -- 91
2019-04-06 07:00:00 9.3 16 Oeste 27 Oeste 0 -- -- 93
2019-04-06 06:00:00 9.2 13 Oeste 26 Noroeste 0.2 -- -- 92
2019-04-06 05:00:00 9.6 21 Oeste 35 Oeste 1 -- -- 90
2019-04-06 04:00:00 9.6 18 Oeste 33 Oeste 0 -- -- 86
2019-04-06 03:00:00 10.4 19 Oeste 30 Oeste 0 -- -- 79
2019-04-06 02:00:00 11.1 14 Oeste 33 Oeste 0 -- -- 72
2019-04-06 01:00:00 11.5 19 Oeste 34 Oeste 0 -- -- 71
2019-04-06 00:00:00 11.5 17 Oeste 29 Oeste 0 -- -- 75
2019-04-05 23:00:00 11.9 19 Oeste 53 Oeste 0 -- -- 72
2019-04-05 22:00:00 12.2 24 Oeste 51 Oeste 0 -- -- 72
2019-04-05 21:00:00 12.5 20 Oeste 44 Oeste 0 -- -- 70
2019-04-05 20:00:00 14.1 28 Oeste 49 Oeste 0 -- -- 60
2019-04-05 19:00:00 15.4 30 Oeste 53 Oeste 0 -- -- 51
2019-04-05 18:00:00 15.7 32 Oeste 58 Oeste 0 -- -- 51
2019-04-05 17:00:00 16 34 Oeste 58 Sudoeste 0 -- -- 53
2019-04-05 16:00:00 14.9 37 Oeste 58 Oeste 0 -- -- 58
2019-04-05 15:00:00 14.5 22 Oeste 48 Noroeste 0 -- -- 73
2019-04-05 14:00:00 13.1 23 Oeste 37 Noroeste 0.2 -- -- 93
2019-04-05 13:00:00 11.5 14 Oeste 32 Oeste 4.6 -- -- 95
2019-04-05 12:00:00 12 21 Sudoeste 30 Sur 2 -- -- 94
2019-04-05 11:00:00 12.2 5 Oeste 15 Sudoeste 0.8 -- -- 97
2019-04-05 10:00:00 11.2 8 Oeste 30 Sudoeste 6.2 -- -- 96
2019-04-05 09:00:00 12.3 15 Sudoeste 35 Sudoeste 1.8 -- -- 95
2019-04-05 08:00:00 12 22 Sudoeste 35 Sur 2.2 -- -- 94
2019-04-05 07:00:00 12.1 16 Sudoeste 27 Sudoeste 0.2 -- -- 92
2019-04-05 06:00:00 12.1 12 Sudoeste 17 Sudoeste 0.6 -- -- 90
2019-04-05 05:00:00 12 0 Calma 15 Sudoeste 0 -- -- 80
2019-04-05 04:00:00 12.6 6 Oeste 19 Oeste 0 -- -- 73
2019-04-05 03:00:00 12.6 10 Oeste 19 Oeste 0 -- -- 71
2019-04-05 02:00:00 11.8 11 Oeste 22 Oeste 0 -- -- 75
2019-04-05 01:00:00 8.5 6 Oeste 8 Oeste 0 -- -- 75
2019-04-05 00:00:00 9.8 5 Oeste 18 Oeste 0 -- -- 72
2019-04-04 23:00:00 10 12 Oeste 15 Oeste 0 -- -- 71
2019-04-04 22:00:00 11.9 11 Oeste 27 Sudoeste 0 -- -- 64
2019-04-04 21:00:00 13.5 21 Oeste 36 Oeste 0 -- -- 61
2019-04-04 20:00:00 16 20 Oeste 42 Sudoeste 0 -- -- 54
2019-04-04 19:00:00 17.4 28 Oeste 45 Oeste 0 -- -- 54
2019-04-04 18:00:00 19.3 22 Oeste 42 Sudoeste 0 -- -- 49
2019-04-04 17:00:00 19.4 26 Sudoeste 45 Sudoeste 0 -- -- 49
2019-04-04 16:00:00 20.1 30 Sudoeste 46 Oeste 0 -- -- 43
2019-04-04 15:00:00 20.8 26 Oeste 41 Sudoeste 0 -- -- 39
2019-04-04 14:00:00 20.4 26 Oeste 48 Sudoeste 0 -- -- 39
2019-04-04 13:00:00 19.6 26 Oeste 42 Oeste 0 -- -- 40
2019-04-04 12:00:00 18.6 23 Oeste 39 Oeste 0 -- -- 44
2019-04-04 11:00:00 16.7 10 Oeste 18 Oeste 0 -- -- 51
2019-04-04 10:00:00 14.1 10 Oeste 17 Noroeste 0 -- -- 61
2019-04-04 09:00:00 11.3 8 Noroeste 17 Oeste 0 -- -- 72
2019-04-04 08:00:00 10.3 12 Noroeste 20 Noroeste 0 -- -- 74
2019-04-04 07:00:00 9 9 Oeste 13 Oeste 0 -- -- 78
2019-04-04 06:00:00 11 5 Sudoeste 12 Oeste 0 -- -- 73
2019-04-04 05:00:00 12 3 Norte 26 Oeste 0 -- -- 73
2019-04-04 04:00:00 12.5 17 Oeste 30 Oeste 0 -- -- 74
2019-04-04 03:00:00 13.1 22 Oeste 31 Oeste 0 -- -- 77
2019-04-04 02:00:00 13.5 17 Oeste 25 Oeste 0 -- -- 83
2019-04-04 01:00:00 13.8 15 Oeste 24 Oeste 0 -- -- 77
2019-04-04 00:00:00 14.3 18 Oeste 33 Oeste 0 -- -- 71
2019-04-03 23:00:00 15.3 20 Oeste 33 Oeste 0 -- -- 64
2019-04-03 22:00:00 15.9 17 Oeste 30 Oeste 0 -- -- 58
2019-04-03 21:00:00 18.5 18 Oeste 36 Noroeste 0 -- -- 47
2019-04-03 20:00:00 21.6 21 Oeste 40 Oeste 0 -- -- 38
2019-04-03 19:00:00 24 15 Oeste 39 Oeste 0 -- -- 35
2019-04-03 18:00:00 24.8 17 Oeste 37 Noroeste 0 -- -- 36
2019-04-03 17:00:00 25.2 24 Oeste 36 Sudoeste 0 -- -- 34
2019-04-03 16:00:00 24.9 19 Oeste 36 Oeste 0 -- -- 33
2019-04-03 15:00:00 21.1 10 Sudeste 22 Sudeste 0 -- -- 66
2019-04-03 14:00:00 19.9 11 Sudeste 14 Sudeste 0 -- -- 76
2019-04-03 13:00:00 18.8 12 Sur 16 Sudeste 0 -- -- 78
2019-04-03 12:00:00 19 12 Sur 17 Sur 0 -- -- 71
2019-04-03 11:00:00 16.9 8 Noroeste 16 Noroeste 0 -- -- 72
2019-04-03 10:00:00 13.3 10 Noroeste 20 Noroeste 0 -- -- 84
2019-04-03 09:00:00 11.1 9 Noroeste 17 Norte 0 -- -- 93
2019-04-03 08:00:00 9.7 0 Calma 9 Noroeste 0 -- -- 92
2019-04-03 07:00:00 10.2 4 Norte 10 Noroeste 0 -- -- 93
2019-04-03 06:00:00 11.1 4 Oeste 19 Noroeste 0 -- -- 93
2019-04-03 05:00:00 11.3 12 Noroeste 18 Noroeste 0 -- -- 95
2019-04-03 04:00:00 11.4 5 Noroeste 8 Noroeste 0 -- -- 94
2019-04-03 03:00:00 11.5 3 Oeste 14 Noroeste 0 -- -- 93
2019-04-03 02:00:00 11.7 3 Noroeste 9 Noroeste 0 -- -- 93
2019-04-03 01:00:00 11.9 4 Oeste 10 Noroeste 0 -- -- 91
2019-04-03 00:00:00 13.4 5 Noroeste 8 Noroeste 0 -- -- 91
2019-04-02 23:00:00 13.8 3 Oeste 9 Oeste 0 -- -- 89
2019-04-02 22:00:00 14.1 7 Oeste 9 Oeste 0 -- -- 86
2019-04-02 21:00:00 16.1 2 Este 7 Sur 0 -- -- 85
2019-04-02 20:00:00 17.2 8 Sur 11 Sur 0 -- -- 82
2019-04-02 19:00:00 17.6 7 Sur 14 Sur 0 -- -- 82
2019-04-02 18:00:00 17.7 9 Sur 17 Sur 0 -- -- 81
2019-04-02 17:00:00 18.1 12 Sur 15 Sur 0 -- -- 78
2019-04-02 16:00:00 18.2 12 Sur 15 Sudeste 0 -- -- 78
2019-04-02 15:00:00 18.5 10 Sudeste 15 Sudeste 0 -- -- 77
2019-04-02 14:00:00 18.3 12 Sudeste 14 Sudeste 0 -- -- 77
2019-04-02 13:00:00 17.9 8 Este 10 Este 0 -- -- 76
2019-04-02 12:00:00 17.8 6 Este 15 Norte 0 -- -- 74
2019-04-02 11:00:00 14.4 10 Norte 22 Noroeste 0 -- -- 81
2019-04-02 10:00:00 11.3 12 Noroeste 23 Noroeste 0 -- -- 92
2019-04-02 09:00:00 9.3 14 Noroeste 22 Noroeste 0 -- -- 98
2019-04-02 08:00:00 8.9 12 Noroeste 18 Noroeste 0 -- -- 97
2019-04-02 07:00:00 9.3 13 Noroeste 21 Norte 0 -- -- 96
2019-04-02 06:00:00 10 12 Noroeste 19 Noroeste 0 -- -- 96
2019-04-02 05:00:00 10.4 9 Noroeste 15 Noroeste 0 -- -- 96
2019-04-02 04:00:00 10.9 8 Noroeste 12 Noroeste 0 -- -- 96
2019-04-02 03:00:00 11.3 4 Noroeste 11 Noroeste 0 -- -- 95
2019-04-02 02:00:00 12.1 2 Nordeste 6 Nordeste 0 -- -- 94
2019-04-02 01:00:00 12.7 2 Norte 6 Oeste 0 -- -- 91
2019-04-02 00:00:00 13.4 4 Sur 9 Oeste 0 -- -- 88
2019-04-01 23:00:00 13.5 4 Noroeste 8 Oeste 0 -- -- 85
2019-04-01 22:00:00 14.9 8 Oeste 15 Oeste 0 -- -- 81
2019-04-01 21:00:00 16.2 10 Oeste 15 Oeste 0 -- -- 74
2019-04-01 20:00:00 19.8 6 Oeste 16 Oeste 0 -- -- 66
2019-04-01 19:00:00 20.2 6 Noroeste 20 Sudoeste 0 -- -- 66
2019-04-01 18:00:00 18.9 8 Nordeste 16 Nordeste 0 -- -- 77
2019-04-01 17:00:00 17.8 8 Nordeste 13 Nordeste 0 -- -- 83
2019-04-01 16:00:00 17.9 6 Nordeste 17 Sudeste 0 -- -- 84
2019-04-01 15:00:00 16.6 4 Nordeste 10 Nordeste 0 -- -- 88
2019-04-01 14:00:00 16.4 7 Norte 17 Norte 0 -- -- 90
2019-04-01 13:00:00 15.1 5 Sudoeste 15 Noroeste 1.6 -- -- 94
2019-04-01 12:00:00 15.9 8 Norte 30 Sur 0 -- -- 86
2019-04-01 11:00:00 16.1 4 Este 10 Noroeste -- -- -- 92
2019-04-01 10:00:00 14 5 Noroeste 10 Noroeste 0.6 -- -- 97
2019-04-01 09:00:00 13.4 5 Noroeste 9 Noroeste 0 -- -- 97
2019-04-01 08:00:00 13 5 Norte 14 Noroeste 0 -- -- 98
2019-04-01 07:00:00 12.8 9 Noroeste 14 Noroeste 0 -- -- 98
2019-04-01 06:00:00 12.7 7 Noroeste 10 Norte 0 -- -- 98
2019-04-01 05:00:00 12.9 7 Noroeste 13 Noroeste 0 -- -- 98
2019-04-01 04:00:00 12.8 6 Noroeste 10 Norte 0 -- -- 97
2019-04-01 03:00:00 12.7 6 Noroeste 8 Noroeste 0 -- -- 96
2019-04-01 02:00:00 12.9 4 Norte 8 Sudoeste 0 -- -- 95
2019-04-01 01:00:00 13.7 3 Sur 13 Noroeste 0 -- -- 96
2019-04-01 00:00:00 14.2 3 Norte 6 Norte 0 -- -- 94
2019-03-31 23:00:00 15.4 2 Noroeste 10 Norte 0 -- -- 94
2019-03-31 22:00:00 15.7 6 Noroeste 15 Sudeste 0 -- -- 93
2019-03-31 21:00:00 16 11 Sudeste 20 Sudeste 0 -- -- 93
2019-03-31 20:00:00 16.4 12 Sur 24 Sur 0 -- -- 90
2019-03-31 19:00:00 17.1 17 Sur 28 Sur 0 -- -- 85
2019-03-31 18:00:00 16.9 17 Sur 24 Sur 0 -- -- 84
2019-03-31 17:00:00 17.1 19 Sur 23 Sur 0 -- -- 83
2019-03-31 16:00:00 17.9 15 Sur 18 Sur 0 -- -- 80
2019-03-31 15:00:00 17.8 11 Sur 16 Sudeste 0 -- -- 81
2019-03-31 14:00:00 17.7 6 Sur 10 Sur 0 -- -- 81
2019-03-31 13:00:00 16.9 7 Este 10 Este 0 -- -- 82
2019-03-31 12:00:00 16.8 5 Este 10 Nordeste 0 -- -- 83
2019-03-31 11:00:00 15.6 5 Nordeste 14 Nordeste 0 -- -- 89
2019-03-31 10:00:00 13.9 8 Nordeste 17 Nordeste 0 -- -- 95
2019-03-31 09:00:00 13.8 10 Nordeste 20 Nordeste 0 -- -- 96
2019-03-31 08:00:00 13.8 9 Nordeste 21 Nordeste 0 -- -- 95
2019-03-31 07:00:00 13.9 8 Este 19 Este 0 -- -- 95
2019-03-31 06:00:00 13.7 10 Este 32 Este 0 -- -- 93
2019-03-31 05:00:00 13.7 19 Este 35 Este 0.2 -- -- 94
2019-03-31 03:00:00 14.4 15 Nordeste 38 Nordeste 0 -- -- 97
2019-03-31 01:00:00 14.5 16 Nordeste 36 Este 0.8 -- -- 97
2019-03-31 00:00:00 14.8 14 Nordeste 31 Nordeste 3 -- -- 97
2019-03-30 23:00:00 15 15 Nordeste 27 Este 0.6 -- -- 93
2019-03-30 22:00:00 15.3 12 Este 28 Este 0 -- -- 90
2019-03-30 21:00:00 15.2 13 Este 27 Este 0 -- -- 90
2019-03-30 20:00:00 15.1 11 Este 23 Nordeste 0 -- -- 89
2019-03-30 19:00:00 15.3 10 Este 32 Este 0 -- -- 89
2019-03-30 18:00:00 15.3 16 Este 33 Este 0 -- -- 89
2019-03-30 17:00:00 15.3 16 Este 34 Este 0 -- -- 88
2019-03-30 16:00:00 15.2 24 Este 39 Este 0 -- -- 88
2019-03-30 15:00:00 15.2 20 Este 39 Este 0 -- -- 88
2019-03-30 14:00:00 15.1 17 Este 40 Este 0 -- -- 88
2019-03-30 13:00:00 15.3 19 Este 37 Este 0 -- -- 86
2019-03-30 12:00:00 15.8 20 Este 39 Este 0 -- -- 83
2019-03-30 11:00:00 15.4 18 Este 36 Este 0 -- -- 84
2019-03-30 10:00:00 15.3 19 Este 36 Este 0 -- -- 84
2019-03-30 09:00:00 15.1 21 Este 36 Este 0 -- -- 85
2019-03-30 08:00:00 14.9 23 Nordeste 39 Este 0 -- -- 85
2019-03-30 07:00:00 14.9 21 Este 39 Nordeste 0 -- -- 84
2019-03-30 06:00:00 14.9 21 Este 40 Este 0 -- -- 85
2019-03-30 05:00:00 14.9 22 Este 44 Este 0 -- -- 84
2019-03-30 04:00:00 14.9 26 Este 40 Este 0 -- -- 84
2019-03-30 03:00:00 14.9 23 Este 44 Este 0 -- -- 82
2019-03-30 02:00:00 15.1 23 Este 42 Este 0 -- -- 83
2019-03-30 01:00:00 15.1 21 Este 45 Este 0 -- -- 83
2019-03-30 00:00:00 15.1 25 Este 42 Este 0 -- -- 83
2019-03-29 23:00:00 15.1 30 Este 46 Este 0 -- -- 83
2019-03-29 22:00:00 15.2 24 Este 41 Este 0 -- -- 83
2019-03-29 21:00:00 15.2 22 Este 40 Este 0 -- -- 84
2019-03-29 20:00:00 15.2 22 Este 40 Este 0 -- -- 83
2019-03-29 19:00:00 15.5 24 Este 38 Este 0 -- -- 81
2019-03-29 18:00:00 16 22 Este 40 Este 0 -- -- 81
2019-03-29 17:00:00 16.6 19 Este 37 Este 0 -- -- 80
2019-03-29 16:00:00 17.2 22 Este 37 Este 0 -- -- 75
2019-03-29 15:00:00 17.7 22 Este 41 Este 0 -- -- 74
2019-03-29 14:00:00 17.2 22 Este 44 Este 0 -- -- 76
2019-03-29 13:00:00 17.6 22 Este 37 Este 0 -- -- 73
2019-03-29 12:00:00 16.5 22 Este 39 Este 0 -- -- 78
2019-03-29 11:00:00 16.3 23 Este 40 Este 0 -- -- 80
2019-03-29 10:00:00 15.3 22 Este 42 Este 0 -- -- 84
2019-03-29 09:00:00 15 24 Este 45 Este 0 -- -- 84
2019-03-29 08:00:00 14.9 30 Este 45 Este 0 -- -- 83
2019-03-29 07:00:00 14.8 35 Este 44 Este 0 -- -- 81
2019-03-29 06:00:00 14.8 34 Este 45 Este 0 -- -- 81
2019-03-29 05:00:00 14.7 36 Este 49 Este 0 -- -- 82
2019-03-29 04:00:00 14.7 40 Este 48 Este 0 -- -- 81
2019-03-29 03:00:00 14.7 37 Este 50 Este 0 -- -- 82
2019-03-29 02:00:00 14.7 41 Este 50 Este 0 -- -- 81
2019-03-29 01:00:00 14.8 39 Este 51 Este 0 -- -- 78
2019-03-29 00:00:00 14.9 34 Este 48 Este 0 -- -- 79
2019-03-28 23:00:00 15 27 Este 45 Este 0 -- -- 77
2019-03-28 22:00:00 15.1 26 Este 41 Este 0 -- -- 77
2019-03-28 21:00:00 15 19 Este 42 Este 0 -- -- 80
2019-03-28 20:00:00 15.1 23 Este 41 Este 0 -- -- 81
2019-03-28 19:00:00 15.8 23 Este 49 Este 0 -- -- 79
2019-03-28 18:00:00 16.1 37 Este 50 Este 0 -- -- 78
2019-03-28 17:00:00 16.3 42 Este 53 Este 0 -- -- 75
2019-03-28 16:00:00 16.5 36 Este 53 Este 0 -- -- 76
2019-03-28 15:00:00 16.8 39 Este 54 Este 0 -- -- 75
2019-03-28 14:00:00 16.6 38 Este 53 Este 0 -- -- 74
2019-03-28 13:00:00 16.9 32 Este 53 Este 0 -- -- 70
2019-03-28 12:00:00 16.8 28 Este 45 Este 0 -- -- 68
2019-03-28 11:00:00 16.6 30 Este 49 Este 0 -- -- 71
2019-03-28 10:00:00 16.2 24 Este 44 Este 0 -- -- 72
2019-03-28 09:00:00 15.5 25 Este 47 Este 0 -- -- 74
2019-03-28 08:00:00 14.7 24 Este 49 Este 0 -- -- 78
2019-03-28 07:00:00 14.6 35 Este 52 Este 0 -- -- 74
2019-03-28 06:00:00 14.6 33 Este 48 Este 0 -- -- 75
2019-03-28 05:00:00 14.5 31 Este 45 Este 0 -- -- 77
2019-03-28 04:00:00 14.5 32 Este 47 Este 0 -- -- 76
2019-03-28 03:00:00 14.7 37 Este 46 Este 0 -- -- 74
2019-03-28 02:00:00 14.7 29 Este 50 Este 0 -- -- 75
2019-03-28 01:00:00 14.9 40 Este 51 Este 0 -- -- 75
2019-03-28 00:00:00 15.1 36 Este 49 Este 0 -- -- 79
2019-03-27 23:00:00 15.2 39 Este 50 Este 0 -- -- 79
2019-03-27 22:00:00 15.3 35 Este 47 Este 0 -- -- 76
2019-03-27 21:00:00 15.2 37 Este 46 Este 0 -- -- 72
2019-03-27 20:00:00 15.2 37 Este 46 Este 0 -- -- 74
2019-03-27 19:00:00 15.6 39 Este 45 Este 0 -- -- 71
2019-03-27 18:00:00 16.1 32 Este 48 Este 0 -- -- 71
2019-03-27 17:00:00 16.2 35 Este 53 Este 0 -- -- 69
2019-03-27 16:00:00 16.5 39 Este 53 Este 0 -- -- 71
2019-03-27 15:00:00 16.5 45 Este 58 Este 0 -- -- 66
2019-03-27 14:00:00 16.7 42 Este 59 Este 0 -- -- 63
2019-03-27 13:00:00 16.4 38 Este 55 Este 0 -- -- 64
2019-03-27 12:00:00 16.3 38 Este 60 Este 0 -- -- 66
2019-03-27 11:00:00 15.8 46 Este 63 Este 0 -- -- 67
2019-03-27 10:00:00 15.3 46 Este 63 Este 0 -- -- 73
2019-03-27 09:00:00 14.9 47 Este 67 Este 0 -- -- 75
2019-03-27 08:00:00 14.6 45 Este 62 Este 0 -- -- 77
2019-03-27 07:00:00 14.6 45 Este 64 Este 0 -- -- 78
2019-03-27 06:00:00 14.7 49 Este 67 Este 0 -- -- 77
2019-03-27 05:00:00 14.9 55 Este 70 Este 0 -- -- 73
2019-03-27 04:00:00 14.8 51 Este 66 Este 0 -- -- 74
2019-03-27 03:00:00 15 52 Este 65 Este 0 -- -- 74
2019-03-27 02:00:00 15.2 50 Este 67 Este 0 -- -- 74
2019-03-27 01:00:00 15.5 48 Este 65 Este 0 -- -- 73
2019-03-27 00:00:00 15.6 48 Este 62 Este 0 -- -- 71
2019-03-26 23:00:00 15.7 43 Este 58 Este 0 -- -- 77
2019-03-26 22:00:00 16 40 Este 54 Este 0 -- -- 80
2019-03-26 21:00:00 16 39 Este 51 Este 0 -- -- 82
2019-03-26 20:00:00 16.1 36 Este 51 Este 0 -- -- 83
2019-03-26 19:00:00 16.3 36 Este 49 Este 0 -- -- 84
2019-03-26 18:00:00 16.8 28 Este 46 Este 0 -- -- 81
2019-03-26 17:00:00 17.3 30 Este 38 Este 0 -- -- 78
2019-03-26 16:00:00 17.8 24 Este 36 Este 0 -- -- 76
2019-03-26 15:00:00 18.8 29 Este 37 Este 0 -- -- 68
2019-03-26 14:00:00 19.9 9 Este 30 Este 0 -- -- 71
2019-03-26 13:00:00 17.7 24 Este 30 Este 0 -- -- 74
2019-03-26 12:00:00 18.4 12 Este 23 Este 0 -- -- 74
2019-03-26 11:00:00 18.4 12 Este 30 Este 0 -- -- 72
2019-03-26 10:00:00 17.9 13 Este 27 Este 0 -- -- 74
2019-03-26 09:00:00 17.1 11 Este 22 Este 0 -- -- 75
2019-03-26 08:00:00 15.9 10 Este 22 Este 0 -- -- 79
2019-03-26 07:00:00 15.8 11 Este 23 Norte 0 -- -- 80
2019-03-26 06:00:00 15.7 10 Nordeste 23 Nordeste 0 -- -- 81
2019-03-26 05:00:00 15.8 14 Nordeste 27 Nordeste 0 -- -- 83
2019-03-26 04:00:00 15.8 12 Nordeste 26 Nordeste 0 -- -- 85
2019-03-26 03:00:00 16 12 Este 26 Este 0 -- -- 84
2019-03-26 02:00:00 16.1 13 Este 27 Nordeste 0 -- -- 83
2019-03-26 01:00:00 16.2 13 Nordeste 29 Este 0 -- -- 82
2019-03-26 00:00:00 16.2 12 Nordeste 25 Nordeste 0 -- -- 83
2019-03-25 23:00:00 16.2 12 Este 26 Nordeste 0 -- -- 84
2019-03-25 22:00:00 16.2 11 Este 26 Nordeste 0 -- -- 84
2019-03-25 21:00:00 16.2 13 Este 24 Este 0 -- -- 83
2019-03-25 20:00:00 16.5 11 Este 22 Nordeste 0 -- -- 82
2019-03-25 19:00:00 17.5 11 Este 21 Este 0 -- -- 77
2019-03-25 18:00:00 18.4 9 Este 20 Este 0 -- -- 73
2019-03-25 17:00:00 18.8 10 Este 23 Este 0 -- -- 73
2019-03-25 16:00:00 19.3 10 Este 24 Este 0 -- -- 74
2019-03-25 15:00:00 19.1 13 Este 27 Este 0 -- -- 72
2019-03-25 14:00:00 20.2 10 Este 22 Este 0 -- -- 69
2019-03-25 13:00:00 20.2 11 Este 23 Este 0 -- -- 68
2019-03-25 12:00:00 19.5 10 Este 22 Este 0 -- -- 70
2019-03-25 11:00:00 19.3 9 Este 23 Este 0 -- -- 75
2019-03-25 10:00:00 18.2 9 Este 20 Este 0 -- -- 78
2019-03-25 09:00:00 16.7 9 Este 19 Nordeste 0 -- -- 85
2019-03-25 08:00:00 15.5 8 Este 19 Este 0 -- -- 90
2019-03-25 07:00:00 15.2 9 Este 19 Este 0 -- -- 89
2019-03-25 06:00:00 15.4 8 Este 22 Este 0 -- -- 90
2019-03-25 05:00:00 15.4 10 Este 28 Este 0 -- -- 90
2019-03-25 04:00:00 15.4 13 Este 23 Este 0 -- -- 89
2019-03-25 03:00:00 15.3 11 Este 26 Nordeste 0 -- -- 89
2019-03-25 02:00:00 15.3 12 Nordeste 24 Este 0 -- -- 91
2019-03-25 01:00:00 15.5 9 Este 22 Este 0 -- -- 92
2019-03-25 00:00:00 15.7 10 Este 21 Este 0 -- -- 90
2019-03-24 23:00:00 15.7 11 Este 20 Nordeste 0 -- -- 88
2019-03-24 22:00:00 15.7 10 Nordeste 21 Este 0 -- -- 86
2019-03-24 21:00:00 15.9 10 Nordeste 23 Nordeste 0 -- -- 84
2019-03-24 20:00:00 16.1 13 Este 30 Nordeste 0 -- -- 83
2019-03-24 19:00:00 17 14 Nordeste 31 Este 0 -- -- 80
2019-03-24 18:00:00 18.4 13 Este 29 Este 0 -- -- 77
2019-03-24 17:00:00 19 12 Este 28 Nordeste 0 -- -- 75
2019-03-24 16:00:00 18.8 8 Nordeste 23 Nordeste 0 -- -- 77
2019-03-24 15:00:00 17.8 11 Nordeste 25 Este 0 -- -- 78
2019-03-24 14:00:00 18.4 14 Este 36 Este 0 -- -- 79
2019-03-24 13:00:00 16 14 Este 46 Este 0 -- -- 87
2019-03-24 12:00:00 15.9 36 Este 45 Este 0 -- -- 87
2019-03-24 11:00:00 16 32 Este 42 Este 0 -- -- 87
2019-03-24 10:00:00 15.8 34 Este 42 Este 0 -- -- 87
2019-03-24 09:00:00 15.7 30 Este 39 Este 0 -- -- 87
2019-03-24 08:00:00 15.4 26 Este 39 Este 0 -- -- 88
2019-03-24 07:00:00 15.2 22 Este 37 Este 0 -- -- 89
2019-03-24 06:00:00 15.2 19 Este 33 Nordeste 0 -- -- 88
2019-03-24 05:00:00 15.3 18 Este 40 Este 0 -- -- 89
2019-03-24 04:00:00 15.4 23 Este 37 Este 0 -- -- 89
2019-03-24 03:00:00 15.3 20 Este 40 Este 0 -- -- 88
2019-03-24 02:00:00 15.4 27 Este 44 Este 0 -- -- 87
2019-03-24 01:00:00 15.3 27 Este 49 Este 0 -- -- 86
2019-03-24 00:00:00 15.4 38 Este 49 Este 0 -- -- 87
2019-03-23 23:00:00 15.5 34 Este 52 Este 0 -- -- 86
2019-03-23 22:00:00 15.4 28 Este 47 Este 0 -- -- 86
2019-03-23 21:00:00 15.5 23 Este 41 Este 0 -- -- 87
2019-03-23 20:00:00 15.5 26 Este 44 Este 0 -- -- 84
2019-03-23 19:00:00 15.8 26 Este 43 Este 0 -- -- 84
2019-03-23 18:00:00 17 23 Este 40 Este 0 -- -- 77
2019-03-23 17:00:00 17.1 26 Este 45 Este 0 -- -- 78
2019-03-23 16:00:00 17.6 26 Este 43 Este 0 -- -- 75
2019-03-23 15:00:00 17.8 24 Este 47 Este 0 -- -- 76
2019-03-23 14:00:00 17.7 24 Este 50 Este 0 -- -- 78
2019-03-23 13:00:00 17.5 26 Este 49 Este 0 -- -- 79
2019-03-23 12:00:00 17.3 25 Este 48 Este 0 -- -- 80
2019-03-23 11:00:00 16.6 30 Este 47 Este 0 -- -- 82
2019-03-23 10:00:00 16.2 28 Este 46 Este 0 -- -- 84
2019-03-23 09:00:00 15.5 25 Este 44 Este 0 -- -- 85
2019-03-23 08:00:00 15.1 23 Este 44 Este 0 -- -- 87
2019-03-23 07:00:00 14.9 35 Este 45 Este 0 -- -- 87
2019-03-23 06:00:00 14.9 23 Este 41 Este 0 -- -- 87
2019-03-23 05:00:00 14.9 29 Este 44 Este 0 -- -- 86
2019-03-23 04:00:00 14.9 21 Este 34 Este 0 -- -- 85
2019-03-23 03:00:00 14.8 18 Este 36 Este 0 -- -- 84
2019-03-23 02:00:00 14.8 20 Este 36 Este 0 -- -- 83
2019-03-23 01:00:00 14.6 20 Este 36 Nordeste 0 -- -- 83
2019-03-23 00:00:00 14.6 17 Este 36 Este 0 -- -- 85
2019-03-22 23:00:00 14.9 20 Este 37 Este 0 -- -- 85
2019-03-22 22:00:00 14.9 22 Este 38 Este 0 -- -- 85
2019-03-22 21:00:00 15 21 Este 40 Este 0 -- -- 84
2019-03-22 20:00:00 15 18 Este 39 Nordeste 0 -- -- 82
2019-03-22 19:00:00 15.7 16 Este 38 Este 0 -- -- 80
2019-03-22 18:00:00 16.4 17 Este 35 Este 0 -- -- 77
2019-03-22 17:00:00 17.4 20 Este 37 Este 0 -- -- 73
2019-03-22 16:00:00 17.3 19 Este 36 Este 0 -- -- 71
2019-03-22 15:00:00 16.6 23 Este 46 Este 0 -- -- 73
2019-03-22 14:00:00 16.5 25 Este 47 Este 0 -- -- 72
2019-03-22 13:00:00 16.3 22 Este 41 Este 0 -- -- 72
2019-03-22 12:00:00 16.5 20 Este 39 Este 0 -- -- 71
2019-03-22 11:00:00 15.7 23 Este 46 Este 0 -- -- 71
2019-03-22 10:00:00 15.3 26 Este 53 Este 0 -- -- 72
2019-03-22 09:00:00 14.7 24 Este 46 Este 0 -- -- 72
2019-03-22 08:00:00 14.4 22 Este 46 Este 0 -- -- 77
2019-03-22 07:00:00 14.5 28 Este 46 Este 0 -- -- 76
2019-03-22 06:00:00 14.6 27 Este 50 Este 0 -- -- 78
2019-03-22 05:00:00 14.6 24 Este 46 Este 0 -- -- 76
2019-03-22 04:00:00 14.6 31 Este 48 Este 0 -- -- 77
2019-03-22 03:00:00 14.7 38 Este 49 Este 0 -- -- 74
2019-03-22 02:00:00 14.7 27 Este 46 Este 0 -- -- 73
2019-03-22 01:00:00 14.7 24 Este 45 Este 0 -- -- 73
2019-03-22 00:00:00 14.6 34 Este 46 Este 0 -- -- 74
2019-03-21 23:00:00 14.5 20 Este 39 Este 0 -- -- 77
2019-03-21 22:00:00 14.4 17 Este 37 Este 0 -- -- 80
2019-03-21 21:00:00 14.4 17 Este 41 Este 0 -- -- 78
2019-03-21 20:00:00 14.5 26 Este 39 Este 0 -- -- 78
2019-03-21 19:00:00 14.5 25 Este 43 Este 0 -- -- 79
2019-03-21 18:00:00 15.5 24 Este 42 Este 0 -- -- 72
2019-03-21 17:00:00 15.6 31 Este 42 Este 0 -- -- 74
2019-03-21 16:00:00 16 23 Este 44 Este 0 -- -- 74
2019-03-21 15:00:00 15.6 31 Este 47 Este 0 -- -- 73
2019-03-21 14:00:00 14.9 30 Este 44 Sudeste 0 -- -- 75
2019-03-21 13:00:00 15.2 36 Este 51 Este 0 -- -- 74
2019-03-21 12:00:00 15.1 33 Este 54 Este 0 -- -- 68
2019-03-21 11:00:00 15.7 27 Este 53 Este 0 -- -- 65
2019-03-21 10:00:00 15.1 29 Este 50 Este 0 -- -- 66
2019-03-21 09:00:00 14.7 27 Este 53 Este 0 -- -- 65
2019-03-21 08:00:00 13.9 35 Este 52 Este 0 -- -- 67
2019-03-21 07:00:00 13.7 37 Este 60 Este 0.2 -- -- 68
2019-03-21 06:00:00 14.1 32 Este 49 Este 0 -- -- 75
2019-03-21 05:00:00 14.1 36 Este 50 Este 0 -- -- 74
2019-03-21 04:00:00 14.3 40 Este 51 Este 0 -- -- 72
2019-03-21 03:00:00 14.4 36 Este 52 Este 0 -- -- 73
2019-03-21 02:00:00 14.4 43 Este 56 Este 0 -- -- 75
2019-03-21 01:00:00 14.4 42 Este 54 Este 0 -- -- 75
2019-03-21 00:00:00 14.4 42 Este 52 Este 0 -- -- 73